createdAt,value
2022-09-23T00:00:09.942Z,101580.28
2022-09-23T00:02:38.247Z,101576.25
2022-09-23T00:05:10.540Z,101574.59
2022-09-23T00:07:38.711Z,101571.91
2022-09-23T00:10:08.066Z,101578.75
2022-09-23T00:12:36.226Z,101570.28
2022-09-23T00:15:04.391Z,101575.28
2022-09-23T00:17:33.922Z,101562.56
2022-09-23T00:20:02.356Z,101563.91
2022-09-23T00:22:32.071Z,101556.13
2022-09-23T00:25:00.376Z,101564.50
2022-09-23T00:27:29.243Z,101566.97
2022-09-23T00:29:57.428Z,101570.44
2022-09-23T00:32:26.173Z,101566.59
2022-09-23T00:34:54.362Z,101569.06
2022-09-23T00:37:22.534Z,101552.25
2022-09-23T00:39:52.095Z,101564.66
2022-09-23T00:42:21.568Z,101570.69
2022-09-23T00:44:50.550Z,101571.47
2022-09-23T00:47:21.445Z,101576.84
2022-09-23T00:49:54.099Z,101570.63
2022-09-23T00:52:22.552Z,101575.69
2022-09-23T00:54:53.249Z,101579.25
2022-09-23T00:57:21.820Z,101575.69
2022-09-23T00:59:50.110Z,101583.75
2022-09-23T01:02:18.925Z,101574.84
2022-09-23T01:04:47.411Z,101576.66
2022-09-23T01:07:16.066Z,101577.53
2022-09-23T01:09:44.954Z,101581.94
2022-09-23T01:12:22.820Z,101573.00
2022-09-23T01:14:54.309Z,101583.75
2022-09-23T01:17:25.353Z,101576.56
2022-09-23T01:20:07.454Z,101573.78
2022-09-23T01:22:38.700Z,101579.25
2022-09-23T01:25:34.823Z,101573.97
2022-09-23T01:28:27.995Z,101573.97
2022-09-23T01:31:00.246Z,101586.25
2022-09-23T01:33:32.504Z,101567.94
2022-09-23T01:36:06.342Z,101586.09
2022-09-23T01:38:40.355Z,101583.38
2022-09-23T01:41:17.741Z,101580.59
2022-09-23T01:43:49.170Z,101578.75
2022-09-23T01:46:20.648Z,101571.09
2022-09-23T01:48:53.024Z,101575.50
2022-09-23T01:51:23.961Z,101578.00
2022-09-23T01:53:57.727Z,101563.19
2022-09-23T01:56:28.896Z,101572.59
2022-09-23T01:58:59.859Z,101579.72
2022-09-23T02:01:31.730Z,101573.56
2022-09-23T02:04:04.229Z,101561.56
2022-09-23T02:06:35.032Z,101560.59
2022-09-23T02:09:03.986Z,101563.94
2022-09-23T02:11:32.055Z,101562.78
2022-09-23T02:14:01.256Z,101566.47
2022-09-23T02:16:33.132Z,101568.16
2022-09-23T02:19:03.284Z,101562.78
2022-09-23T02:21:37.435Z,101546.03
2022-09-23T02:24:10.111Z,101554.69
2022-09-23T02:26:39.905Z,101555.56
2022-09-23T02:29:12.006Z,101545.84
2022-09-23T02:31:42.897Z,101545.09
2022-09-23T02:34:17.401Z,101557.03
2022-09-23T02:36:50.307Z,101553.88
2022-09-23T02:39:18.346Z,101551.69
2022-09-23T02:41:50.219Z,101544.97
2022-09-23T02:44:19.318Z,101549.88
2022-09-23T02:46:48.826Z,101552.03
2022-09-23T02:49:18.495Z,101560.38
2022-09-23T02:51:46.833Z,101568.47
2022-09-23T02:54:15.874Z,101567.69
2022-09-23T02:56:44.135Z,101566.91
2022-09-23T02:59:13.101Z,101551.84
2022-09-23T03:01:45.331Z,101552.78
2022-09-23T03:04:19.691Z,101551.16
2022-09-23T03:06:52.883Z,101539.00
2022-09-23T03:09:23.895Z,101541.97
2022-09-23T03:11:54.551Z,101555.44
2022-09-23T03:14:27.341Z,101559.09
2022-09-23T03:16:58.435Z,101544.97
2022-09-23T03:19:33.956Z,101551.09
2022-09-23T03:22:05.801Z,101563.81
2022-09-23T03:24:34.759Z,101557.75
2022-09-23T03:27:21.919Z,101557.09
2022-09-23T03:29:52.034Z,101563.44
2022-09-23T03:32:25.023Z,101563.59
2022-09-23T03:34:59.114Z,101569.38
2022-09-23T03:37:30.460Z,101559.06
2022-09-23T03:40:02.418Z,101566.09
2022-09-23T03:42:33.282Z,101570.09
2022-09-23T03:45:03.300Z,101563.63
2022-09-23T03:47:32.500Z,101573.78
2022-09-23T03:50:02.662Z,101574.34
2022-09-23T03:52:31.718Z,101580.97
2022-09-23T03:55:03.788Z,101576.88
2022-09-23T03:57:33.084Z,101577.22
2022-09-23T04:00:04.948Z,101574.91
2022-09-23T04:02:33.910Z,101579.69
2022-09-23T04:05:04.369Z,101576.50
2022-09-23T04:07:33.057Z,101577.63
2022-09-23T04:10:01.550Z,101584.97
2022-09-23T04:12:30.739Z,101581.63
2022-09-23T04:14:59.527Z,101588.13
2022-09-23T04:17:31.494Z,101583.69
2022-09-23T04:20:08.473Z,101580.31
2022-09-23T04:22:39.313Z,101587.56
2022-09-23T04:25:11.683Z,101590.34
2022-09-23T04:27:40.662Z,101585.97
2022-09-23T04:30:10.596Z,101587.78
2022-09-23T04:32:47.511Z,101587.88
2022-09-23T04:35:17.496Z,101584.31
2022-09-23T04:37:47.104Z,101581.69
2022-09-23T04:40:33.811Z,101588.91
2022-09-23T04:43:05.478Z,101588.97
2022-09-23T04:45:34.772Z,101594.44
2022-09-23T04:48:20.045Z,101589.16
2022-09-23T04:50:50.887Z,101591.84
2022-09-23T04:53:19.880Z,101566.13
2022-09-23T04:55:52.547Z,101598.25
2022-09-23T04:58:23.503Z,101601.03
2022-09-23T05:00:52.887Z,101601.97
2022-09-23T05:03:36.338Z,101602.84
2022-09-23T05:06:06.664Z,101599.28
2022-09-23T05:08:34.934Z,101595.28
2022-09-23T05:11:04.941Z,101603.00
2022-09-23T05:13:36.513Z,101606.47
2022-09-23T05:16:06.573Z,101602.22
2022-09-23T05:18:46.974Z,101600.41
2022-09-23T05:21:25.718Z,101597.72
2022-09-23T05:23:55.553Z,101605.84
2022-09-23T05:26:25.512Z,101605.16
2022-09-23T05:32:12.998Z,101606.19
2022-09-23T05:34:41.992Z,101612.44
2022-09-23T05:37:12.217Z,101604.38
2022-09-23T05:39:41.413Z,101616.00
2022-09-23T05:45:13.810Z,101617.13
2022-09-23T05:47:56.842Z,101618.69
2022-09-23T05:50:26.443Z,101615.03
2022-09-23T05:52:59.945Z,101619.47
2022-09-23T06:07:15.552Z,101620.75
2022-09-23T06:10:10.007Z,101637.78
2022-09-23T06:12:38.690Z,101628.00
2022-09-23T06:18:12.010Z,101631.56
2022-09-23T06:20:57.385Z,101625.44
2022-09-23T06:23:26.762Z,101619.56
2022-09-23T06:26:04.783Z,101628.09
2022-09-23T06:28:33.394Z,101644.91
2022-09-23T06:34:48.202Z,101646.66
2022-09-23T06:38:12.797Z,101656.31
2022-09-23T06:40:53.935Z,101656.16
2022-09-23T06:43:31.751Z,101661.44
2022-09-23T06:46:01.360Z,101656.84
2022-09-23T06:49:11.723Z,101665.72
2022-09-23T06:52:16.563Z,101655.50
2022-09-23T06:55:20.515Z,101639.03
2022-09-23T06:58:00.433Z,101657.84
2022-09-23T07:00:41.908Z,101667.84
2022-09-23T07:09:58.362Z,101671.81
2022-09-23T07:12:26.317Z,101647.53
2022-09-23T07:14:54.353Z,101664.00
2022-09-23T07:17:24.206Z,101666.78
2022-09-23T07:19:52.335Z,101684.28
2022-09-23T07:22:20.270Z,101680.38
2022-09-23T07:24:48.298Z,101677.53
2022-09-23T07:27:19.433Z,101676.41
2022-09-23T07:29:48.972Z,101690.13
2022-09-23T07:32:17.393Z,101693.31
2022-09-23T07:34:47.216Z,101681.09
2022-09-23T07:37:15.468Z,101702.94
2022-09-23T07:39:43.961Z,101707.78
2022-09-23T07:42:13.358Z,101701.38
2022-09-23T07:44:42.061Z,101705.06
2022-09-23T07:47:10.004Z,101704.69
2022-09-23T07:49:38.427Z,101707.91
2022-09-23T07:52:07.780Z,101688.66
2022-09-23T07:54:35.945Z,101707.34
2022-09-23T07:57:04.040Z,101710.25
2022-09-23T07:59:31.942Z,101719.88
2022-09-23T08:02:00.361Z,101711.53
2022-09-23T08:04:29.961Z,101719.00
2022-09-23T08:06:58.745Z,101718.63
2022-09-23T08:09:29.104Z,101699.63
2022-09-23T08:11:57.130Z,101718.84
2022-09-23T08:14:25.075Z,101713.94
2022-09-23T08:16:54.383Z,101719.69
2022-09-23T08:19:22.313Z,101706.44
2022-09-23T08:21:52.165Z,101718.63
2022-09-23T08:24:21.073Z,101715.94
2022-09-23T08:26:51.452Z,101722.88
2022-09-23T08:29:19.485Z,101715.00
2022-09-23T08:31:47.460Z,101724.22
2022-09-23T08:34:15.390Z,101728.25
2022-09-23T08:36:43.392Z,101720.81
2022-09-23T08:39:13.466Z,101731.28
2022-09-23T08:41:43.685Z,101722.56
2022-09-23T08:44:15.076Z,101728.59
2022-09-23T08:46:46.538Z,101738.78
2022-09-23T08:49:18.451Z,101727.13
2022-09-23T08:51:47.268Z,101730.72
2022-09-23T08:54:15.323Z,101720.13
2022-09-23T08:56:43.596Z,101729.84
2022-09-23T08:59:15.586Z,101730.22
2022-09-23T09:01:44.931Z,101732.47
2022-09-23T09:04:17.660Z,101726.00
2022-09-23T09:06:53.516Z,101713.56
2022-09-23T09:09:24.931Z,101725.88
2022-09-23T09:11:54.335Z,101725.00
2022-09-23T09:14:25.973Z,101721.72
2022-09-23T09:17:01.704Z,101730.13
2022-09-23T09:19:55.295Z,101724.66
2022-09-23T09:22:27.660Z,101732.94
2022-09-23T09:24:55.853Z,101736.38
2022-09-23T09:27:24.439Z,101727.81
2022-09-23T09:29:54.663Z,101738.53
2022-09-23T09:32:29.221Z,101735.84
2022-09-23T09:34:58.712Z,101735.66
2022-09-23T09:37:31.698Z,101711.78
2022-09-23T09:39:59.827Z,101738.19
2022-09-23T09:42:28.818Z,101734.50
2022-09-23T09:44:59.821Z,101727.72
2022-09-23T09:47:33.500Z,101705.13
2022-09-23T09:50:06.108Z,101733.47
2022-09-23T09:52:34.079Z,101726.13
2022-09-23T10:08:10.306Z,101732.84
2022-09-23T10:11:42.272Z,101736.16
2022-09-23T10:14:58.933Z,101733.16
2022-09-23T10:21:56.519Z,101727.31
2022-09-23T10:33:03.582Z,101722.16
2022-09-23T10:46:54.934Z,101729.94
2022-09-23T10:50:21.271Z,101658.19
2022-09-23T10:53:23.353Z,101578.38
2022-09-23T10:56:29.396Z,101723.44
2022-09-23T11:03:16.882Z,101726.25
2022-09-23T11:06:29.680Z,101728.84
2022-09-23T11:09:20.329Z,101715.84
2022-09-23T11:12:31.305Z,101727.50
2022-09-23T11:25:45.848Z,101661.94
2022-09-23T11:29:06.189Z,101730.13
2022-09-23T11:32:34.328Z,101732.50
2022-09-23T11:35:28.512Z,101642.69
2022-09-23T11:38:31.209Z,101719.56
2022-09-23T11:44:23.965Z,101731.03
2022-09-23T11:47:28.907Z,101700.28
2022-09-23T11:54:00.574Z,101645.66
2022-09-23T11:57:31.216Z,101724.72
2022-09-23T12:04:30.951Z,101711.25
2022-09-23T12:07:14.806Z,101718.69
2022-09-23T12:13:51.715Z,101637.41
2022-09-23T12:21:38.797Z,101707.72
2022-09-23T12:24:50.967Z,101693.91
2022-09-23T12:33:38.775Z,101670.66
2022-09-23T12:36:07.653Z,101709.09
2022-09-23T12:38:36.449Z,101701.53
2022-09-23T12:41:08.225Z,101695.34
2022-09-23T12:43:37.565Z,101676.50
2022-09-23T12:46:21.242Z,101691.16
2022-09-23T12:48:59.403Z,101691.69
2022-09-23T12:51:27.485Z,101681.50
2022-09-23T12:54:14.264Z,101683.59
2022-09-23T12:57:01.842Z,101679.50
2022-09-23T12:59:32.702Z,101685.97
2022-09-23T13:02:22.286Z,101682.81
2022-09-23T13:05:14.273Z,101681.72
2022-09-23T13:07:44.017Z,101675.06
2022-09-23T13:10:15.554Z,101675.59
2022-09-23T13:12:43.676Z,101675.16
2022-09-23T13:15:26.761Z,101682.38
2022-09-23T13:17:54.702Z,101661.25
2022-09-23T13:20:38.232Z,101683.53
2022-09-23T13:23:24.278Z,101687.16
2022-09-23T13:25:52.593Z,101684.63
2022-09-23T13:28:30.953Z,101673.53
2022-09-23T13:31:00.780Z,101660.69
2022-09-23T13:33:32.678Z,101674.38
2022-09-23T13:36:04.203Z,101678.41
2022-09-23T13:38:34.047Z,101670.00
2022-09-23T13:41:03.470Z,101677.91
2022-09-23T13:43:34.709Z,101672.56
2022-09-23T13:46:06.671Z,101673.94
2022-09-23T13:48:34.598Z,101677.53
2022-09-23T13:51:10.177Z,101667.06
2022-09-23T13:53:38.083Z,101676.88
2022-09-23T13:56:07.443Z,101673.38
2022-09-23T13:58:35.961Z,101655.69
2022-09-23T14:01:05.759Z,101670.44
2022-09-23T14:03:37.193Z,101663.78
2022-09-23T14:06:06.955Z,101667.69
2022-09-23T14:08:35.017Z,101652.59
2022-09-23T14:11:06.292Z,101654.47
2022-09-23T14:13:41.778Z,101661.50
2022-09-23T14:16:12.764Z,101651.91
2022-09-23T14:18:41.326Z,101661.56
2022-09-23T14:21:27.356Z,101665.13
2022-09-23T14:23:55.429Z,101664.03
2022-09-23T14:26:23.462Z,101667.72
2022-09-23T14:28:51.381Z,101651.13
2022-09-23T14:31:20.680Z,101648.78
2022-09-23T14:33:48.643Z,101627.31
2022-09-23T14:36:31.400Z,101647.41
2022-09-23T14:39:06.249Z,101647.41
2022-09-23T14:41:36.087Z,101639.06
2022-09-23T14:44:04.291Z,101653.94
2022-09-23T14:46:35.005Z,101647.72
2022-09-23T14:49:05.739Z,101642.66
2022-09-23T14:51:37.123Z,101640.97
2022-09-23T14:54:38.245Z,101634.66
2022-09-23T14:57:26.572Z,101636.22
2022-09-23T14:59:56.017Z,101635.75
2022-09-23T15:02:33.666Z,101634.88
2022-09-23T15:05:16.048Z,101636.78
2022-09-23T15:07:45.110Z,101640.13
2022-09-23T15:10:19.940Z,101640.13
2022-09-23T15:12:50.477Z,101642.25
2022-09-23T15:15:18.665Z,101632.13
2022-09-23T15:17:48.052Z,101621.22
2022-09-23T15:20:21.094Z,101606.09
2022-09-23T15:22:50.013Z,101611.22
2022-09-23T15:25:19.944Z,101641.44
2022-09-23T15:28:02.415Z,101641.72
2022-09-23T15:30:30.500Z,101636.19
2022-09-23T15:32:59.967Z,101641.78
2022-09-23T15:35:27.965Z,101637.09
2022-09-23T15:37:58.340Z,101633.78
2022-09-23T15:40:27.579Z,101630.72
2022-09-23T15:42:56.813Z,101631.22
2022-09-23T15:45:29.925Z,101628.19
2022-09-23T15:48:00.872Z,101638.00
2022-09-23T15:50:30.232Z,101627.63
2022-09-23T15:52:59.334Z,101642.22
2022-09-23T15:55:27.298Z,101639.13
2022-09-23T15:57:55.235Z,101635.69
2022-09-23T16:00:23.143Z,101636.56
2022-09-23T16:02:51.063Z,101638.72
2022-09-23T16:05:23.809Z,101627.09
2022-09-23T16:07:53.416Z,101629.94
2022-09-23T16:10:22.310Z,101626.06
2022-09-23T16:12:50.228Z,101631.41
2022-09-23T16:15:19.605Z,101586.31
2022-09-23T16:17:47.684Z,101629.06
2022-09-23T16:20:17.707Z,101623.28
2022-09-23T16:22:47.919Z,101635.22
2022-09-23T16:25:16.051Z,101633.34
2022-09-23T16:27:44.538Z,101636.78
2022-09-23T16:30:12.976Z,101631.00
2022-09-23T16:32:40.978Z,101632.34
2022-09-23T16:35:10.313Z,101628.91
2022-09-23T16:37:38.216Z,101642.06
2022-09-23T16:40:09.876Z,101638.81
2022-09-23T16:42:38.340Z,101634.09
2022-09-23T16:45:07.365Z,101632.00
2022-09-23T16:47:35.394Z,101631.94
2022-09-23T16:50:03.388Z,101630.56
2022-09-23T16:52:31.397Z,101621.03
2022-09-23T16:54:59.350Z,101646.25
2022-09-23T16:57:30.004Z,101639.91
2022-09-23T17:00:15.431Z,101647.72
2022-09-23T17:03:00.901Z,101649.41
2022-09-23T17:05:28.866Z,101646.38
2022-09-23T17:07:57.577Z,101655.47
2022-09-23T17:10:25.688Z,101646.97
2022-09-23T17:12:55.003Z,101647.72
2022-09-23T17:15:22.920Z,101649.19
2022-09-23T17:17:52.012Z,101647.78
2022-09-23T17:20:20.151Z,101649.09
2022-09-23T17:22:48.267Z,101644.69
2022-09-23T17:25:16.590Z,101653.88
2022-09-23T17:27:46.410Z,101651.59
2022-09-23T17:30:15.918Z,101652.22
2022-09-23T17:32:43.824Z,101662.59
2022-09-23T17:35:11.802Z,101657.84
2022-09-23T17:37:39.791Z,101655.34
2022-09-23T17:40:08.823Z,101658.38
2022-09-23T17:42:41.061Z,101656.97
2022-09-23T17:45:10.382Z,101668.31
2022-09-23T17:47:41.938Z,101663.44
2022-09-23T17:50:10.364Z,101664.94
2022-09-23T17:52:38.224Z,101665.47
2022-09-23T17:55:07.289Z,101670.47
2022-09-23T17:57:35.466Z,101665.81
2022-09-23T18:00:03.864Z,101671.63
2022-09-23T18:02:31.840Z,101671.38
2022-09-23T18:05:01.216Z,101670.34
2022-09-23T18:07:29.162Z,101672.41
2022-09-23T18:09:58.172Z,101673.19
2022-09-23T18:12:26.232Z,101679.88
2022-09-23T18:14:54.634Z,101678.63
2022-09-23T18:17:22.999Z,101673.72
2022-09-23T18:19:50.999Z,101687.66
2022-09-23T18:22:20.403Z,101683.63
2022-09-23T18:24:48.409Z,101684.00
2022-09-23T18:27:16.489Z,101687.97
2022-09-23T18:29:44.446Z,101689.16
2022-09-23T18:32:14.337Z,101688.63
2022-09-23T18:34:42.645Z,101686.25
2022-09-23T18:37:15.721Z,101685.47
2022-09-23T18:39:45.593Z,101691.34
2022-09-23T18:42:13.651Z,101695.47
2022-09-23T18:44:41.838Z,101701.69
2022-09-23T18:47:29.773Z,101666.81
2022-09-23T18:50:15.215Z,101695.06
2022-09-23T18:52:43.172Z,101696.69
2022-09-23T18:55:12.699Z,101695.06
2022-09-23T18:57:41.277Z,101688.34
2022-09-23T19:00:12.622Z,101700.00
2022-09-23T19:02:43.600Z,101705.59
2022-09-23T19:05:11.638Z,101708.56
2022-09-23T19:07:39.547Z,101720.16
2022-09-23T19:10:08.502Z,101714.09
2022-09-23T19:12:37.853Z,101725.91
2022-09-23T19:15:06.235Z,101714.75
2022-09-23T19:17:34.554Z,101712.22
2022-09-23T19:20:03.165Z,101723.59
2022-09-23T19:22:32.762Z,101728.19
2022-09-23T19:25:00.662Z,101730.97
2022-09-23T19:27:28.653Z,101723.00
2022-09-23T19:29:58.086Z,101715.47
2022-09-23T19:32:26.785Z,101720.84
2022-09-23T19:34:54.731Z,101728.03
2022-09-23T19:37:23.150Z,101723.03
2022-09-23T19:39:51.157Z,101727.63
2022-09-23T19:42:19.047Z,101719.94
2022-09-23T19:44:47.176Z,101723.56
2022-09-23T19:47:17.554Z,101728.16
2022-09-23T19:49:45.493Z,101721.22
2022-09-23T19:52:13.366Z,101722.28
2022-09-23T19:54:41.704Z,101719.75
2022-09-23T19:57:10.159Z,101732.41
2022-09-23T19:59:40.267Z,101724.63
2022-09-23T20:02:10.297Z,101727.41
2022-09-23T20:04:39.939Z,101735.63
2022-09-23T20:07:08.990Z,101735.72
2022-09-23T20:09:36.965Z,101738.50
2022-09-23T20:12:05.046Z,101736.00
2022-09-23T20:14:33.084Z,101732.59
2022-09-23T20:17:02.205Z,101695.38
2022-09-23T20:19:30.335Z,101737.25
2022-09-23T20:22:17.381Z,101726.59
2022-09-23T20:24:45.318Z,101733.09
2022-09-23T20:27:12.386Z,101739.41
2022-09-23T20:29:40.289Z,101737.84
2022-09-23T20:32:09.817Z,101739.75
2022-09-23T20:34:37.705Z,101738.88
2022-09-23T20:37:07.082Z,101741.69
2022-09-23T20:39:44.050Z,101748.19
2022-09-23T20:42:13.559Z,101728.91
2022-09-23T20:44:43.217Z,101735.16
2022-09-23T20:47:13.336Z,101733.06
2022-09-23T20:49:42.955Z,101742.84
2022-09-23T20:52:12.728Z,101734.19
2022-09-23T20:54:40.947Z,101733.56
2022-09-23T20:57:09.207Z,101723.22
2022-09-23T20:59:37.364Z,101736.50
2022-09-23T21:02:05.356Z,101732.06
2022-09-23T21:04:34.911Z,101738.41
2022-09-23T21:07:02.837Z,101738.50
2022-09-23T21:09:32.195Z,101739.59
2022-09-23T21:12:00.156Z,101743.00
2022-09-23T21:14:28.090Z,101747.59
2022-09-23T21:16:57.287Z,101742.28
2022-09-23T21:19:26.605Z,101738.03
2022-09-23T21:21:54.881Z,101745.84
2022-09-23T21:25:03.504Z,101753.97
2022-09-23T21:27:12.178Z,101752.16
2022-09-23T21:29:40.327Z,101750.75
2022-09-23T21:32:08.290Z,101748.72
2022-09-23T21:34:36.350Z,101752.31
2022-09-23T21:37:04.357Z,101764.00
2022-09-23T21:39:32.248Z,101752.81
2022-09-23T21:42:00.210Z,101755.16
2022-09-23T21:44:31.806Z,101749.88
2022-09-23T21:46:59.917Z,101754.31
2022-09-23T21:49:32.235Z,101753.50
2022-09-23T21:52:00.784Z,101757.25
2022-09-23T21:54:29.664Z,101756.38
2022-09-23T21:56:57.584Z,101756.44
2022-09-23T21:59:25.609Z,101746.81
2022-09-23T22:01:54.911Z,101758.44
2022-09-23T22:04:22.897Z,101757.72
2022-09-23T22:06:50.950Z,101755.88
2022-09-23T22:09:20.047Z,101757.00
2022-09-23T22:12:07.884Z,101750.84
2022-09-23T22:14:35.814Z,101760.56
2022-09-23T22:17:05.366Z,101756.94
2022-09-23T22:19:35.211Z,101750.19
2022-09-23T22:22:03.655Z,101765.00
2022-09-23T22:24:33.534Z,101763.16
2022-09-23T22:27:01.543Z,101766.88
2022-09-23T22:29:46.942Z,101769.56
2022-09-23T22:32:52.838Z,101771.41
2022-09-23T22:35:22.491Z,101777.69
2022-09-23T22:37:50.585Z,101772.19
2022-09-23T22:40:18.696Z,101783.78
2022-09-23T22:42:46.989Z,101786.47
2022-09-23T22:45:15.086Z,101784.56
2022-09-23T22:47:45.734Z,101791.75
2022-09-23T22:50:15.124Z,101774.19
2022-09-23T22:52:43.270Z,101784.56
2022-09-23T22:55:11.161Z,101784.81
2022-09-23T22:57:39.106Z,101790.88
2022-09-23T23:00:07.897Z,101795.47
2022-09-23T23:02:35.865Z,101790.97
2022-09-23T23:05:05.715Z,101784.88
2022-09-23T23:07:36.321Z,101790.19
2022-09-23T23:10:04.743Z,101781.38
2022-09-23T23:12:33.565Z,101784.06
2022-09-23T23:15:01.631Z,101781.56
2022-09-23T23:17:29.843Z,101786.13
2022-09-23T23:19:57.983Z,101775.78
2022-09-23T23:22:29.539Z,101786.19
2022-09-23T23:24:57.737Z,101782.81
2022-09-23T23:27:26.073Z,101778.56
2022-09-23T23:29:54.120Z,101781.16
2022-09-23T23:32:22.066Z,101782.16
2022-09-23T23:34:51.531Z,101781.28
2022-09-23T23:37:21.053Z,101767.28
2022-09-23T23:39:51.454Z,101775.13
2022-09-23T23:42:19.534Z,101774.34
2022-09-23T23:44:47.919Z,101778.00
2022-09-23T23:47:15.847Z,101773.56
2022-09-23T23:49:43.754Z,101770.97
2022-09-23T23:52:13.479Z,101754.56
2022-09-23T23:54:41.678Z,101762.06
2022-09-23T23:57:11.249Z,101759.44
2022-09-23T23:59:39.149Z,101758.56
